Time;durP1;ratioP1;P1;durP2;ratioP2;P2;SDS_P1;SDS_P2;PMS_P1;PMS_P2;Temp;Humidity;BMP_temperature;BMP_pressure;BME280_temperature;BME280_humidity;BME280_pressure;Samples;Min_cycle;Max_cycle;Signal;HPM_P1;HPM_P2
2021/01/24 00:02:14;;;;;;;5.35;1.90;;;205.60;2252.80;;;;;;5095155;28;20433;-65
2021/01/24 00:04:40;;;;;;;4.43;2.58;;;205.60;2252.80;;;;;;5095695;28;20112;-65
2021/01/24 00:07:06;;;;;;;3.30;2.00;;;205.60;2252.80;;;;;;5095537;28;20036;-65
2021/01/24 00:09:32;;;;;;;5.20;2.88;;;205.60;2252.80;;;;;;5095209;28;20028;-65
2021/01/24 00:11:58;;;;;;;7.30;2.40;;;205.50;2252.80;;;;;;5093552;28;20046;-64
2021/01/24 00:14:24;;;;;;;5.75;2.17;;;205.50;2252.80;;;;;;5094753;28;20731;-65
2021/01/24 00:16:49;;;;;;;5.63;2.78;;;205.50;2252.80;;;;;;5095136;28;20035;-65
2021/01/24 00:19:15;;;;;;;4.57;2.70;;;205.40;2252.80;;;;;;5094621;28;20027;-65
2021/01/24 00:21:41;;;;;;;3.22;1.85;;;205.40;2252.80;;;;;;5095445;28;20077;-65
2021/01/24 00:24:07;;;;;;;3.88;1.73;;;205.30;2252.80;;;;;;5095746;28;20028;-65
2021/01/24 00:26:33;;;;;;;7.15;2.80;;;205.40;2252.80;;;;;;5093670;28;20028;-65
2021/01/24 00:28:59;;;;;;;7.88;3.28;;;205.40;2252.80;;;;;;5093984;28;20349;-65
2021/01/24 00:31:25;;;;;;;8.27;2.60;;;205.30;2252.80;;;;;;5093912;28;20027;-65
2021/01/24 00:33:51;;;;;;;5.05;2.47;;;205.30;2252.80;;;;;;5093644;28;20043;-65
2021/01/24 00:36:19;;;;;;;8.13;3.53;;;205.30;2252.80;;;;;;5094224;28;20028;-64
2021/01/24 00:38:46;;;;;;;7.30;3.78;;;205.30;2252.80;;;;;;5092870;28;20092;-65
2021/01/24 00:41:12;;;;;;;7.10;3.40;;;205.20;2252.80;;;;;;5094285;28;20070;-65
2021/01/24 00:43:37;;;;;;;4.88;2.60;;;205.10;2252.80;;;;;;5095488;28;20055;-65
2021/01/24 00:46:03;;;;;;;10.38;3.70;;;205.10;2252.80;;;;;;5088456;28;20029;-65
2021/01/24 00:48:33;;;;;;;8.65;4.82;;;205.10;2252.80;;;;;;5074669;28;20521;-65
2021/01/24 00:50:59;;;;;;;7.07;3.50;;;205.00;2252.80;;;;;;5074676;28;20025;-65
2021/01/24 00:53:25;;;;;;;10.38;5.13;;;205.00;2252.80;;;;;;5075156;28;20035;-65
2021/01/24 00:55:51;;;;;;;14.95;6.93;;;205.00;2252.80;;;;;;5078667;28;20421;-65
2021/01/24 00:58:17;;;;;;;12.90;5.38;;;205.00;2252.80;;;;;;5083484;28;20028;-65
2021/01/24 01:00:43;;;;;;;15.05;5.80;;;204.90;2252.80;;;;;;5085541;28;20024;-65
2021/01/24 01:03:09;;;;;;;13.82;4.82;;;204.90;2252.80;;;;;;5083679;28;20107;-64
2021/01/24 01:05:35;;;;;;;16.55;5.38;;;205.00;2252.80;;;;;;5083400;28;20047;-65
2021/01/24 01:08:00;;;;;;;7.70;3.22;;;204.90;2252.80;;;;;;5088075;28;20078;-65
2021/01/24 01:10:26;;;;;;;4.18;1.70;;;180.10;2252.80;;;;;;5093737;28;20031;-65
2021/01/24 01:12:52;;;;;;;3.83;1.42;;;180.10;2252.80;;;;;;5094081;28;20118;-64
2021/01/24 01:15:18;;;;;;;5.80;2.30;;;180.00;2252.80;;;;;;5093321;28;20119;-65
2021/01/24 01:17:44;;;;;;;3.08;1.65;;;180.00;2252.80;;;;;;5094384;28;20031;-65
2021/01/24 01:20:11;;;;;;;7.05;3.47;;;180.10;2252.80;;;;;;5094333;28;20028;-65
2021/01/24 01:22:36;;;;;;;3.47;1.80;;;180.00;2252.80;;;;;;5093578;28;20380;-65
2021/01/24 01:25:03;;;;;;;5.68;2.47;;;180.00;2252.80;;;;;;5094445;28;20043;-65
2021/01/24 01:27:29;;;;;;;11.35;5.85;;;180.00;2252.80;;;;;;5094094;28;20418;-64
2021/01/24 01:29:55;;;;;;;9.65;4.55;;;179.90;2252.80;;;;;;5082949;28;20043;-65
2021/01/24 01:32:21;;;;;;;4.78;2.05;;;179.90;2252.80;;;;;;5074751;28;20029;-65
2021/01/24 01:34:46;;;;;;;10.23;4.10;;;179.80;2252.80;;;;;;5074226;28;20055;-65
2021/01/24 01:37:12;;;;;;;7.25;4.25;;;179.90;2252.80;;;;;;5073725;28;20040;-65
2021/01/24 01:39:38;;;;;;;5.53;3.08;;;179.80;2252.80;;;;;;5074430;28;20032;-65
2021/01/24 01:42:11;;;;;;;4.68;3.25;;;179.90;2252.80;;;;;;5074354;28;20074;-65
2021/01/24 01:44:37;;;;;;;3.75;1.80;;;179.90;2252.80;;;;;;5074284;28;20419;-64
2021/01/24 01:47:03;;;;;;;4.00;2.00;;;179.90;2252.80;;;;;;5074080;28;20035;-64
2021/01/24 01:49:29;;;;;;;2.20;1.23;;;179.90;2252.80;;;;;;5074289;28;20337;-64
2021/01/24 01:51:55;;;;;;;3.60;1.40;;;179.90;2252.80;;;;;;5077013;28;20040;-64
2021/01/24 01:54:20;;;;;;;3.97;1.90;;;180.00;2252.80;;;;;;5078266;28;20055;-65
2021/01/24 01:56:47;;;;;;;5.38;1.35;;;180.00;2252.80;;;;;;5078147;28;20027;-65
2021/01/24 01:59:13;;;;;;;3.17;1.25;;;180.10;2227.20;;;;;;5077264;28;20063;-65
2021/01/24 02:01:50;;;;;;;4.68;1.27;;;204.80;2201.60;;;;;;5077055;28;20020;-65
2021/01/24 02:04:36;;;;;;;3.08;1.95;;;204.90;2201.60;;;;;;5077596;28;20036;-64
2021/01/24 02:07:13;;;;;;;3.42;1.27;;;204.90;2201.60;;;;;;5077781;28;20038;-65
2021/01/24 02:09:53;;;;;;;3.47;1.00;;;204.90;2201.60;;;;;;5077953;28;20060;-65
2021/01/24 02:12:41;;;;;;;2.95;1.08;;;204.90;2201.60;;;;;;5077466;28;20028;-65
2021/01/24 02:15:15;;;;;;;3.42;1.50;;;204.90;2176.00;;;;;;5077654;28;20025;-65
2021/01/24 02:17:49;;;;;;;4.85;1.70;;;204.80;2176.00;;;;;;5077691;28;20465;-65
2021/01/24 02:20:36;;;;;;;3.78;1.30;;;180.10;2176.00;;;;;;5077379;28;20055;-65
2021/01/24 02:23:03;;;;;;;2.33;1.20;;;180.00;2201.60;;;;;;5077002;28;20084;-65
2021/01/24 02:25:58;;;;;;;4.03;1.35;;;179.90;2201.60;;;;;;5076976;28;20106;-65
2021/01/24 02:28:35;;;;;;;2.38;0.85;;;180.00;2227.20;;;;;;5071755;28;20033;-65
2021/01/24 02:31:03;;;;;;;1.35;0.65;;;180.00;2201.60;;;;;;5077329;28;20036;-64
2021/01/24 02:33:30;;;;;;;1.98;0.93;;;180.00;2201.60;;;;;;5076552;28;20342;-65
2021/01/24 02:35:59;;;;;;;1.55;0.82;;;180.00;2201.60;;;;;;5077075;28;20437;-64
2021/01/24 02:38:27;;;;;;;11.38;4.80;;;180.00;2201.60;;;;;;5076566;28;20032;-65
2021/01/24 02:40:53;;;;;;;10.52;3.38;;;180.00;2227.20;;;;;;5076845;28;20440;-65
2021/01/24 02:43:19;;;;;;;5.25;1.48;;;179.90;2227.20;;;;;;5077125;28;20425;-65
2021/01/24 02:45:49;;;;;;;6.60;1.50;;;179.90;2227.20;;;;;;5076746;28;20073;-65
2021/01/24 02:48:17;;;;;;;3.72;2.13;;;179.90;2227.20;;;;;;5076434;28;20048;-64
2021/01/24 02:50:44;;;;;;;7.28;2.25;;;179.90;2227.20;;;;;;5077033;28;20032;-65
2021/01/24 02:53:11;;;;;;;4.97;2.05;;;179.90;2201.60;;;;;;5076727;28;20058;-65
2021/01/24 02:55:37;;;;;;;4.07;1.63;;;179.90;2201.60;;;;;;5076787;28;20384;-65
2021/01/24 02:58:03;;;;;;;3.72;1.30;;;179.90;2201.60;;;;;;5076527;28;20028;-65
2021/01/24 03:00:29;;;;;;;11.35;1.80;;;179.90;2201.60;;;;;;5076408;28;20056;-65
2021/01/24 03:02:55;;;;;;;4.10;1.00;;;179.90;2201.60;;;;;;5075947;28;20371;-65
2021/01/24 03:05:21;;;;;;;4.15;1.40;;;179.90;2201.60;;;;;;5076359;28;20139;-65
2021/01/24 03:07:48;;;;;;;7.03;2.75;;;179.90;2201.60;;;;;;5075823;28;20020;-65
2021/01/24 03:10:15;;;;;;;6.30;2.10;;;179.80;2227.20;;;;;;5076395;28;20032;-65
2021/01/24 03:12:58;;;;;;;6.55;1.30;;;179.70;2227.20;;;;;;5076259;28;20461;-65
2021/01/24 03:15:25;;;;;;;7.15;1.90;;;179.70;2227.20;;;;;;5094811;28;20027;-65
2021/01/24 03:17:55;;;;;;;6.07;1.90;;;179.70;2227.20;;;;;;5099210;28;20024;-65
2021/01/24 03:20:22;;;;;;;5.85;1.75;;;179.60;2227.20;;;;;;5098905;28;20493;-65
2021/01/24 03:22:49;;;;;;;5.97;1.75;;;179.60;2227.20;;;;;;5098549;28;20374;-65
2021/01/24 03:25:15;;;;;;;4.03;1.60;;;179.70;2227.20;;;;;;5098528;28;20020;-64
2021/01/24 03:27:42;;;;;;;8.82;1.70;;;179.80;2201.60;;;;;;5084267;28;20039;-65
2021/01/24 03:30:10;;;;;;;4.70;1.83;;;179.80;2201.60;;;;;;5078338;28;20028;-64
2021/01/24 03:32:36;;;;;;;6.55;1.80;;;179.80;2201.60;;;;;;5078367;28;20048;-65
2021/01/24 03:35:02;;;;;;;6.72;1.65;;;179.80;2201.60;;;;;;5078314;28;20329;-65
2021/01/24 03:37:28;;;;;;;6.97;1.85;;;179.80;2201.60;;;;;;5078533;28;20052;-65
2021/01/24 03:39:54;;;;;;;4.70;1.25;;;179.80;2201.60;;;;;;5078168;28;20036;-65
2021/01/24 03:42:19;;;;;;;3.60;1.42;;;179.80;2201.60;;;;;;5077903;28;20035;-65
2021/01/24 03:44:45;;;;;;;3.00;1.10;;;179.70;2201.60;;;;;;5078389;28;20027;-65
2021/01/24 03:47:11;;;;;;;3.85;1.15;;;179.70;2201.60;;;;;;5078039;28;20032;-65
2021/01/24 03:49:38;;;;;;;5.43;1.48;;;179.60;2227.20;;;;;;5077356;28;20028;-64
2021/01/24 03:52:04;;;;;;;3.00;1.10;;;179.60;2227.20;;;;;;5078180;28;20029;-65
2021/01/24 03:54:30;;;;;;;3.30;1.10;;;179.60;2227.20;;;;;;5077887;28;20021;-64
2021/01/24 03:56:56;;;;;;;4.57;1.08;;;179.60;2227.20;;;;;;5077621;28;20029;-65
2021/01/24 03:59:21;;;;;;;4.05;1.10;;;179.50;2252.80;;;;;;5077548;28;20024;-65
2021/01/24 04:01:47;;;;;;;1.85;0.85;;;179.50;2227.20;;;;;;5077475;28;20031;-65
2021/01/24 04:04:13;;;;;;;3.67;0.80;;;179.40;2252.80;;;;;;5077065;28;20028;-66
2021/01/24 04:06:39;;;;;;;5.15;1.23;;;179.50;2252.80;;;;;;5077388;28;20028;-64
2021/01/24 04:09:04;;;;;;;3.08;1.00;;;179.60;2227.20;;;;;;5077586;28;20031;-65
2021/01/24 04:11:30;;;;;;;4.95;1.40;;;179.70;2227.20;;;;;;5077407;28;20032;-65
2021/01/24 04:13:56;;;;;;;3.75;1.20;;;179.70;2201.60;;;;;;5077711;28;20029;-64
2021/01/24 04:16:22;;;;;;;4.72;1.55;;;179.80;2176.00;;;;;;5077873;28;20059;-65
2021/01/24 04:18:48;;;;;;;8.80;2.30;;;179.90;2176.00;;;;;;5077215;28;20066;-65
2021/01/24 04:21:14;;;;;;;19.05;7.97;;;179.90;2176.00;;;;;;5077488;28;20448;-64
2021/01/24 04:23:40;;;;;;;19.70;6.65;;;179.80;2201.60;;;;;;5077491;28;20025;-65
2021/01/24 04:26:05;;;;;;;15.25;6.78;;;179.80;2227.20;;;;;;5076917;28;20532;-65
2021/01/24 04:28:31;;;;;;;14.15;6.35;;;179.80;2227.20;;;;;;5077319;28;20020;-64
2021/01/24 04:30:57;;;;;;;6.85;1.55;;;179.70;2227.20;;;;;;5076771;28;20043;-65
2021/01/24 04:33:23;;;;;;;6.32;1.88;;;179.70;2201.60;;;;;;5077358;28;20024;-65
2021/01/24 04:35:48;;;;;;;8.45;2.60;;;179.70;2201.60;;;;;;5077619;28;20028;-65
2021/01/24 04:38:14;;;;;;;9.68;2.10;;;179.60;2227.20;;;;;;5076954;28;20020;-65
2021/01/24 04:40:41;;;;;;;7.35;2.20;;;179.50;2227.20;;;;;;5077582;28;20075;-65
2021/01/24 04:43:06;;;;;;;6.95;2.00;;;179.40;2252.80;;;;;;5077579;28;20020;-65
2021/01/24 04:45:32;;;;;;;6.22;1.80;;;179.30;2252.80;;;;;;5076948;28;20119;-65
2021/01/24 04:47:58;;;;;;;5.43;1.85;;;179.20;2252.80;;;;;;5077503;28;20028;-65
2021/01/24 04:50:26;;;;;;;5.57;1.80;;;154.50;2252.80;;;;;;5077129;28;20035;-65
2021/01/24 04:52:52;;;;;;;9.63;2.13;;;179.20;2252.80;;;;;;5076950;28;20032;-65
2021/01/24 04:55:18;;;;;;;6.05;1.85;;;154.50;2252.80;;;;;;5077414;28;20025;-65
2021/01/24 04:57:45;;;;;;;3.78;1.70;;;154.40;2252.80;;;;;;5077120;28;20322;-65
2021/01/24 05:00:12;;;;;;;5.55;2.40;;;154.40;2252.80;;;;;;5076564;28;20064;-65
2021/01/24 05:02:38;;;;;;;4.72;1.80;;;154.40;2252.80;;;;;;5077080;28;20330;-65
2021/01/24 05:05:05;;;;;;;4.95;1.90;;;154.40;2252.80;;;;;;5076978;28;20076;-66
2021/01/24 05:07:31;;;;;;;14.07;7.47;;;154.40;2252.80;;;;;;5076733;28;20024;-65
2021/01/24 05:09:57;;;;;;;41.60;21.50;;;154.40;2252.80;;;;;;5076641;28;20418;-65
2021/01/24 05:12:23;;;;;;;22.92;12.13;;;154.40;2252.80;;;;;;5076684;28;20036;-65
2021/01/24 05:14:49;;;;;;;13.82;7.20;;;154.50;2252.80;;;;;;5076664;28;20028;-65
2021/01/24 05:17:16;;;;;;;13.45;5.57;;;154.50;2252.80;;;;;;5076938;28;20480;-65
2021/01/24 05:19:43;;;;;;;19.10;10.80;;;154.40;2252.80;;;;;;5076939;28;20116;-64
2021/01/24 05:22:09;;;;;;;19.55;7.93;;;154.40;2252.80;;;;;;5076605;28;20033;-65
2021/01/24 05:24:35;;;;;;;6.00;2.50;;;154.30;2252.80;;;;;;5077182;28;20052;-65
2021/01/24 05:27:11;;;;;;;8.73;3.65;;;154.40;2252.80;;;;;;5080331;28;20031;-65
2021/01/24 05:29:42;;;;;;;7.90;3.55;;;154.30;2252.80;;;;;;5081001;28;20059;-65
2021/01/24 05:32:09;;;;;;;6.55;3.33;;;154.20;2252.80;;;;;;5080421;28;20029;-66
2021/01/24 05:34:35;;;;;;;8.90;3.67;;;154.20;2252.80;;;;;;5080374;28;20036;-66
2021/01/24 05:37:01;;;;;;;7.57;2.58;;;154.10;2252.80;;;;;;5080849;28;20036;-65
2021/01/24 05:39:31;;;;;;;5.32;2.25;;;154.20;2252.80;;;;;;5080812;28;20028;-65
2021/01/24 05:41:59;;;;;;;73.38;46.83;;;154.20;2252.80;;;;;;5080485;28;20059;-66
2021/01/24 05:44:26;;;;;;;75.47;48.72;;;154.10;2252.80;;;;;;5080164;28;20141;-66
2021/01/24 05:47:03;;;;;;;120.57;84.43;;;154.10;2252.80;;;;;;5080010;28;20025;-65
2021/01/24 05:49:30;;;;;;;67.38;49.55;;;154.10;2252.80;;;;;;5080367;28;20042;-65
2021/01/24 05:52:03;;;;;;;44.20;32.38;;;154.10;2252.80;;;;;;5080250;28;20039;-65
2021/01/24 05:54:58;;;;;;;27.08;17.88;;;154.10;2252.80;;;;;;5080037;28;20028;-65
2021/01/24 05:57:24;;;;;;;5.40;1.80;;;154.20;2252.80;;;;;;5070712;28;20044;-65
2021/01/24 06:00:00;;;;;;;21.70;11.35;;;154.30;2252.80;;;;;;5080159;28;20028;-65
2021/01/24 06:02:27;;;;;;;18.52;7.57;;;154.30;2252.80;;;;;;5079931;28;20424;-65
2021/01/24 06:04:55;;;;;;;16.10;14.43;;;154.30;2252.80;;;;;;5079961;28;20127;-65
2021/01/24 06:07:21;;;;;;;9.85;6.45;;;154.30;2252.80;;;;;;5079503;28;20340;-65
2021/01/24 06:09:47;;;;;;;5.55;1.55;;;154.40;2252.80;;;;;;5079665;28;20115;-65
2021/01/24 06:12:16;;;;;;;8.02;5.15;;;154.40;2252.80;;;;;;5079712;28;20067;-65
2021/01/24 06:14:48;;;;;;;7.15;2.97;;;154.50;2252.80;;;;;;5079331;28;20388;-65
2021/01/24 06:17:26;;;;;;;5.75;4.00;;;154.50;2252.80;;;;;;5079657;28;20322;-65
2021/01/24 06:19:57;;;;;;;3.30;1.70;;;179.20;2252.80;;;;;;5079841;28;20028;-65
2021/01/24 06:22:27;;;;;;;6.47;3.33;;;179.30;2252.80;;;;;;5080117;28;20104;-66
2021/01/24 06:24:56;;;;;;;7.22;4.40;;;179.20;2252.80;;;;;;5079701;28;20025;-65
2021/01/24 06:27:25;;;;;;;9.40;4.47;;;179.30;2252.80;;;;;;5079669;28;20078;-65
2021/01/24 06:29:53;;;;;;;;;;;179.30;2252.80;;;;;;5079878;28;20039;-65
2021/01/24 06:32:30;;;;;;;61.92;32.22;;;179.40;2252.80;;;;;;5079859;28;19999;-65
2021/01/24 06:35:17;;;;;;;25.83;14.80;;;179.30;2252.80;;;;;;5079542;28;20401;-65
2021/01/24 06:37:51;;;;;;;48.60;27.55;;;179.40;2252.80;;;;;;5078839;28;20024;-66
2021/01/24 06:40:28;;;;;;;70.88;43.95;;;179.50;2252.80;;;;;;5079425;28;20027;-65
2021/01/24 06:42:57;;;;;;;35.75;26.25;;;179.60;2252.80;;;;;;5079716;28;20024;-65
2021/01/24 06:45:25;;;;;;;28.58;19.92;;;179.70;2252.80;;;;;;5079064;28;20031;-65
2021/01/24 06:47:52;;;;;;;15.57;11.68;;;179.80;2252.80;;;;;;5079309;28;20025;-65
2021/01/24 06:50:45;;;;;;;22.20;16.00;;;179.90;2227.20;;;;;;5079199;28;20036;-65
2021/01/24 06:53:17;;;;;;;14.45;11.40;;;180.10;2201.60;;;;;;5078951;28;20033;-65
2021/01/24 06:55:56;;;;;;;20.27;18.10;;;204.90;2176.00;;;;;;5078826;28;20419;-65
2021/01/24 06:58:22;;;;;;;10.50;7.10;;;205.10;2176.00;;;;;;5079128;28;20024;-65
2021/01/24 07:00:49;;;;;;;4.93;3.65;;;205.30;2150.40;;;;;;5079030;28;20032;-65
2021/01/24 07:03:19;;;;;;;4.55;1.85;;;205.60;2099.20;;;;;;5079026;28;20028;-65
2021/01/24 07:05:46;;;;;;;8.85;4.57;;;230.40;2073.60;;;;;;5078487;28;20052;-65
2021/01/24 07:08:33;;;;;;;7.60;3.80;;;230.60;2073.60;;;;;;5079202;28;20024;-64
2021/01/24 07:10:59;;;;;;;3.95;2.00;;;230.70;2048.00;;;;;;5079079;28;20118;-65
2021/01/24 07:13:30;;;;;;;7.55;2.25;;;230.90;2022.40;;;;;;5078488;28;20095;-64
2021/01/24 07:15:57;;;;;;;11.20;4.97;;;231.00;2022.40;;;;;;5078974;28;20025;-65
2021/01/24 07:18:23;;;;;;;6.30;4.00;;;231.10;1996.80;;;;;;5078999;28;20047;-64
2021/01/24 07:20:51;;;;;;;17.13;11.98;;;231.30;1996.80;;;;;;5082631;28;20024;-65
2021/01/24 07:23:18;;;;;;;6.80;3.33;;;231.30;1996.80;;;;;;5078662;28;20437;-65
2021/01/24 07:25:45;;;;;;;8.70;4.07;;;256.10;1971.20;;;;;;5078214;28;20055;-65
2021/01/24 07:28:14;;;;;;;9.32;3.70;;;256.10;1945.60;;;;;;5078213;28;20032;-65
2021/01/24 07:30:40;;;;;;;5.22;2.17;;;256.00;1971.20;;;;;;5084926;28;20032;-65
2021/01/24 07:33:07;;;;;;;6.68;3.10;;;231.30;1971.20;;;;;;5084236;28;20115;-65
2021/01/24 07:35:37;;;;;;;5.90;2.40;;;256.10;1945.60;;;;;;5078204;28;20028;-66
2021/01/24 07:38:03;;;;;;;5.22;2.50;;;231.30;1971.20;;;;;;5083349;28;20025;-65
2021/01/24 07:40:30;;;;;;;4.43;2.10;;;256.10;1945.60;;;;;;5078177;28;20028;-65
2021/01/24 07:42:57;;;;;;;4.68;3.08;;;256.30;1920.00;;;;;;5077382;28;20024;-65
2021/01/24 07:45:24;;;;;;;6.30;2.90;;;256.50;1894.40;;;;;;5077846;28;20112;-65
2021/01/24 07:47:50;;;;;;;5.32;3.38;;;256.50;1920.00;;;;;;5077007;28;20028;-66
2021/01/24 07:50:15;;;;;;;5.13;2.88;;;256.50;1920.00;;;;;;5078040;28;20032;-65
2021/01/24 07:52:42;;;;;;;5.85;2.60;;;256.50;1920.00;;;;;;5081501;28;20024;-65
2021/01/24 07:55:10;;;;;;;4.22;2.67;;;256.60;1920.00;;;;;;5086044;28;20076;-65
2021/01/24 07:57:38;;;;;;;3.80;1.90;;;256.50;1945.60;;;;;;5085867;28;20042;-65
2021/01/24 08:00:05;;;;;;;4.90;1.87;;;256.50;1920.00;;;;;;5086730;28;20028;-64
2021/01/24 08:02:31;;;;;;;4.82;2.45;;;256.40;1920.00;;;;;;5087585;28;20060;-66
2021/01/24 08:04:59;;;;;;;7.53;4.57;;;256.40;1945.60;;;;;;5085537;28;20465;-65
2021/01/24 08:07:29;;;;;;;4.68;2.83;;;256.40;1945.60;;;;;;5084785;28;20031;-65
2021/01/24 08:09:55;;;;;;;6.40;3.03;;;256.40;1945.60;;;;;;5085153;28;20052;-66
2021/01/24 08:12:22;;;;;;;5.32;2.28;;;256.50;1945.60;;;;;;5088053;28;20036;-65
2021/01/24 08:14:48;;;;;;;4.30;1.58;;;256.50;1920.00;;;;;;5089182;28;20019;-65
2021/01/24 08:17:16;;;;;;;10.85;5.57;;;256.70;1894.40;;;;;;5088134;28;20024;-65
2021/01/24 08:19:44;;;;;;;4.03;2.70;;;256.90;1894.40;;;;;;5089536;28;20034;-64
2021/01/24 08:22:10;;;;;;;7.07;4.32;;;281.70;1920.00;;;;;;5086138;28;20028;-65
2021/01/24 08:24:37;;;;;;;10.85;4.53;;;281.80;1920.00;;;;;;5084949;28;20040;-66
2021/01/24 08:27:04;;;;;;;5.65;2.50;;;282.10;1868.80;;;;;;5086518;28;20019;-65
2021/01/24 08:29:34;;;;;;;6.45;2.03;;;282.30;1843.20;;;;;;5097274;28;20028;-65
2021/01/24 08:32:04;;;;;;;2.33;1.20;;;307.20;1843.20;;;;;;5096853;28;20028;-65
2021/01/24 08:34:32;;;;;;;4.70;2.03;;;307.40;1817.60;;;;;;5095819;28;20421;-65
2021/01/24 08:36:59;;;;;;;3.10;1.40;;;307.50;1792.00;;;;;;5095462;28;20103;-65
2021/01/24 08:39:26;;;;;;;2.47;1.10;;;307.40;1792.00;;;;;;5096838;28;20440;-65
2021/01/24 08:41:53;;;;;;;5.25;2.13;;;307.30;1766.40;;;;;;5096926;28;20325;-64
2021/01/24 08:44:19;;;;;;;4.35;2.17;;;307.20;1792.00;;;;;;5097016;28;20409;-65
2021/01/24 08:46:50;;;;;;;5.75;2.50;;;282.50;1740.80;;;;;;5091823;28;20043;-64
2021/01/24 08:49:21;;;;;;;6.40;2.10;;;307.30;1766.40;;;;;;5097640;28;20078;-65
2021/01/24 08:51:48;;;;;;;8.40;1.38;;;307.50;1766.40;;;;;;5096608;28;20345;-65
2021/01/24 08:54:18;;;;;;;7.10;2.47;;;307.60;1766.40;;;;;;5096512;28;20436;-65
2021/01/24 08:56:44;;;;;;;2.45;1.40;;;307.60;1740.80;;;;;;5086152;28;20031;-64
2021/01/24 08:59:21;;;;;;;9.00;1.25;;;307.60;1740.80;;;;;;5086148;28;20028;-65
2021/01/24 09:01:54;;;;;;;3.85;1.40;;;307.60;1715.20;;;;;;5091111;28;20028;-65
2021/01/24 09:04:28;;;;;;;6.32;2.20;;;307.50;1715.20;;;;;;5090965;28;20028;-64
2021/01/24 09:07:04;;;;;;;5.18;2.63;;;307.50;1740.80;;;;;;5088859;28;20028;-64
2021/01/24 09:09:31;;;;;;;24.85;17.02;;;307.50;1766.40;;;;;;5080469;28;20040;-64
2021/01/24 09:11:57;;;;;;;20.10;12.38;;;307.50;1766.40;;;;;;5079801;28;20094;-65
2021/01/24 09:14:23;;;;;;;28.02;14.95;;;307.50;1766.40;;;;;;5080190;28;20140;-64
2021/01/24 09:17:00;;;;;;;27.80;17.40;;;307.40;1740.80;;;;;;5080670;28;20052;-65
2021/01/24 09:19:26;;;;;;;39.17;20.80;;;307.30;1766.40;;;;;;5080780;28;20031;-65
2021/01/24 09:21:53;;;;;;;24.55;14.30;;;307.30;1766.40;;;;;;5078545;28;20423;-64
2021/01/24 09:24:19;;;;;;;21.73;12.75;;;307.20;1792.00;;;;;;5090470;28;20044;-65
2021/01/24 09:26:45;;;;;;;23.67;8.80;;;307.30;1792.00;;;;;;5088292;28;20035;-65
2021/01/24 09:29:12;;;;;;;7.10;3.65;;;307.20;1766.40;;;;;;5088806;28;20024;-65
2021/01/24 09:31:38;;;;;;;10.00;3.83;;;307.30;1766.40;;;;;;5089384;28;20441;-65
2021/01/24 09:34:04;;;;;;;4.75;2.10;;;307.30;1740.80;;;;;;5092258;28;20032;-67
2021/01/24 09:36:30;;;;;;;4.63;2.55;;;307.40;1766.40;;;;;;5096302;28;20039;-65
2021/01/24 09:38:56;;;;;;;9.20;2.22;;;307.50;1766.40;;;;;;5097973;28;20024;-66
2021/01/24 09:41:22;;;;;;;7.13;2.53;;;307.70;1740.80;;;;;;5099443;28;20028;-66
2021/01/24 09:43:48;;;;;;;5.95;3.03;;;307.80;1740.80;;;;;;5098692;28;20098;-66
2021/01/24 09:46:13;;;;;;;6.43;3.40;;;332.80;1715.20;;;;;;5099347;28;20020;-66
2021/01/24 09:48:39;;;;;;;4.68;1.95;;;333.10;1689.60;;;;;;5098760;28;20027;-66
2021/01/24 09:51:08;;;;;;;4.72;2.17;;;333.20;1689.60;;;;;;5099020;28;20156;-66
2021/01/24 09:53:37;;;;;;;5.38;2.75;;;333.30;1689.60;;;;;;5096263;28;20020;-66
2021/01/24 09:56:07;;;;;;;8.30;1.98;;;333.50;1689.60;;;;;;5099595;28;20020;-66
2021/01/24 09:58:33;;;;;;;6.93;2.65;;;333.30;1689.60;;;;;;5098541;28;20141;-65
2021/01/24 10:00:59;;;;;;;13.43;7.07;;;333.40;1689.60;;;;;;5094755;28;20024;-66
2021/01/24 10:03:25;;;;;;;9.15;3.60;;;333.50;1664.00;;;;;;5083690;28;20029;-65
2021/01/24 10:05:51;;;;;;;9.02;4.90;;;333.50;1664.00;;;;;;5079982;28;20052;-66
2021/01/24 10:08:17;;;;;;;16.98;5.60;;;333.40;1638.40;;;;;;5079399;28;20035;-65
2021/01/24 10:10:45;;;;;;;10.40;5.53;;;333.30;1638.40;;;;;;5079188;28;20036;-66
2021/01/24 10:13:12;;;;;;;11.63;4.77;;;333.50;1664.00;;;;;;5079770;28;20028;-66
2021/01/24 10:15:39;;;;;;;7.50;2.67;;;333.40;1664.00;;;;;;5084972;28;20034;-66
2021/01/24 10:18:05;;;;;;;7.38;3.60;;;333.40;1689.60;;;;;;5080956;28;20047;-67
2021/01/24 10:20:31;;;;;;;7.85;3.33;;;333.40;1715.20;;;;;;5088687;28;20426;-67
2021/01/24 10:22:57;;;;;;;10.10;2.47;;;333.40;1715.20;;;;;;5089935;28;20020;-67
2021/01/24 10:25:23;;;;;;;2.38;1.48;;;333.20;1689.60;;;;;;5088424;28;20024;-66
2021/01/24 10:27:49;;;;;;;15.32;6.03;;;333.20;1664.00;;;;;;5089825;28;20023;-67
2021/01/24 10:30:21;;;;;;;5.93;1.52;;;333.20;1689.60;;;;;;5090651;28;20040;-67
2021/01/24 10:32:47;;;;;;;17.30;7.40;;;333.20;1638.40;;;;;;5085145;28;20349;-66
2021/01/24 10:35:13;;;;;;;6.03;3.20;;;333.30;1664.00;;;;;;5090791;28;20027;-66
2021/01/24 10:37:39;;;;;;;8.30;2.10;;;333.50;1664.00;;;;;;5089430;28;20032;-68
2021/01/24 10:40:06;;;;;;;13.77;6.85;;;333.50;1638.40;;;;;;5084808;28;20111;-67
2021/01/24 10:42:32;;;;;;;10.73;4.80;;;333.60;1638.40;;;;;;5093850;28;20028;-67
2021/01/24 10:44:58;;;;;;;9.63;3.85;;;358.40;1612.80;;;;;;5095699;28;20319;-68
2021/01/24 10:47:25;;;;;;;3.40;1.42;;;358.50;1638.40;;;;;;5096385;28;20028;-67
2021/01/24 10:49:51;;;;;;;17.58;9.13;;;333.70;1587.20;;;;;;5095590;28;20326;-66
2021/01/24 10:52:17;;;;;;;17.25;5.90;;;358.40;1664.00;;;;;;5094972;28;20038;-67
2021/01/24 10:54:43;;;;;;;13.35;7.65;;;358.40;1638.40;;;;;;5096293;28;20166;-67
2021/01/24 10:57:09;;;;;;;18.60;10.27;;;358.40;1638.40;;;;;;5096433;28;20062;-66
2021/01/24 10:59:35;;;;;;;10.48;5.60;;;358.50;1638.40;;;;;;5079792;28;20399;-67
2021/01/24 11:02:01;;;;;;;29.88;13.00;;;358.50;1612.80;;;;;;5076160;28;20024;-66
2021/01/24 11:04:30;;;;;;;16.75;5.40;;;358.50;1612.80;;;;;;5076225;28;20127;-66
2021/01/24 11:06:56;;;;;;;22.20;11.15;;;358.50;1612.80;;;;;;5075740;28;20032;-66
2021/01/24 11:09:22;;;;;;;6.53;1.88;;;358.60;1612.80;;;;;;5076142;28;20054;-66
2021/01/24 11:11:48;;;;;;;4.68;2.22;;;358.70;1587.20;;;;;;5076275;28;20105;-66
2021/01/24 11:14:14;;;;;;;19.65;11.00;;;358.70;1587.20;;;;;;5093169;28;20032;-66
2021/01/24 11:16:40;;;;;;;23.40;15.73;;;358.80;1536.00;;;;;;5096632;28;20028;-66
2021/01/24 11:19:05;;;;;;;20.58;6.90;;;359.00;1536.00;;;;;;5096486;28;20626;-66
2021/01/24 11:21:31;;;;;;;5.65;3.28;;;359.20;1510.40;;;;;;5094690;28;20032;-66
2021/01/24 11:23:57;;;;;;;3.13;1.88;;;384.00;1484.80;;;;;;5094013;28;20101;-67
2021/01/24 11:26:23;;;;;;;7.97;2.20;;;384.00;1484.80;;;;;;5096255;28;20056;-67
2021/01/24 11:28:49;;;;;;;6.93;2.40;;;359.20;1510.40;;;;;;5093969;28;20036;-66
2021/01/24 11:31:14;;;;;;;6.03;1.75;;;358.90;1536.00;;;;;;5093301;28;20055;-67
2021/01/24 11:33:40;;;;;;;4.65;1.67;;;358.80;1536.00;;;;;;5094761;28;20024;-66
2021/01/24 11:36:06;;;;;;;4.05;1.80;;;358.90;1510.40;;;;;;5092904;28;20031;-65
2021/01/24 11:38:32;;;;;;;7.78;1.95;;;359.30;1536.00;;;;;;5092117;28;20421;-65
2021/01/24 11:40:57;;;;;;;2.85;1.48;;;384.20;1484.80;;;;;;5095223;28;20031;-65
2021/01/24 11:43:25;;;;;;;5.03;1.95;;;384.30;1459.20;;;;;;5086997;28;20024;-65
2021/01/24 11:45:51;;;;;;;5.35;1.67;;;384.80;1433.60;;;;;;5083372;28;20027;-65
2021/01/24 11:48:16;;;;;;;5.63;1.80;;;384.70;1433.60;;;;;;5081400;28;20028;-66
2021/01/24 11:50:42;;;;;;;6.57;2.25;;;384.70;1433.60;;;;;;5088563;28;20098;-66
2021/01/24 11:53:08;;;;;;;22.48;11.00;;;384.60;1433.60;;;;;;5083918;28;20036;-65
2021/01/24 11:55:34;;;;;;;4.07;1.63;;;409.60;1459.20;;;;;;5085730;28;20046;-66
2021/01/24 11:57:59;;;;;;;8.60;2.20;;;410.10;1382.40;;;;;;5086153;28;20020;-66
2021/01/24 12:00:25;;;;;;;4.60;1.60;;;435.30;1382.40;;;;;;5084975;28;20017;-65
2021/01/24 12:02:51;;;;;;;4.45;1.30;;;435.50;1356.80;;;;;;5087696;28;20028;-65
2021/01/24 12:05:17;;;;;;;10.65;2.15;;;435.50;1331.20;;;;;;5089131;28;20138;-67
2021/01/24 12:07:42;;;;;;;6.22;1.60;;;410.50;1356.80;;;;;;5086203;28;20692;-67
2021/01/24 12:10:09;;;;;;;7.25;1.88;;;410.10;1382.40;;;;;;5087231;28;20441;-66
2021/01/24 12:12:35;;;;;;;3.17;1.50;;;410.10;1408.00;;;;;;5086159;28;20436;-66
2021/01/24 12:15:05;;;;;;;13.48;2.65;;;410.30;1356.80;;;;;;5083833;28;20434;-66
2021/01/24 12:17:31;;;;;;;5.10;1.70;;;410.40;1331.20;;;;;;5084562;28;20020;-67